Disclaimer

Please do not use the information listed here in-flight or in-navigation, as they are not provided to us by the airports but are provided by volunteers, so they might be outdated.

Search


Regions


Airport information page

Radio informations:
MARTI TWR - 118.1 MHz
Ground (GND) - 121.9 MHz
Clearance delivery - 121.9 MHz
HABANA APP - 119.35 MHz
BOYEROS RDO INTL - 2887 MHz

Airport informations:
Latitude: 22° 59' 20.95" N
Longitude: 082° 24' 32.71" W
Elevation: 210 feet - 64 meters
Operating hours: 24 hour operations
Operating agency: Civil government, landing fees and diplomatic clearance may be required
Timezone: UTC-5(-4DT) - Last Sunday in March to last Sunday in October
Fuel: Jet A1, without icing nhibitor.

100/130 MIL Spec, low lead, aviation gasoline (BLUE)

Runway information:
06/24 - 13123 x 148 feet< - >4000 x 45 meters

Recent METARs:
MUHA 191555Z VRB03KT 9000 SCT025 29/23 Q1018
MUHA 191555Z VRB03KT 9000 SCT025 29/23 Q1018
MUHA 191655Z 15003KT 070V200 9000 SCT030 29/22 Q1018

Airport on the map: